createdAt,value
2022-11-05T00:00:34.317Z,19.70
2022-11-05T00:03:21.205Z,17.67
2022-11-05T00:06:09.109Z,18.23
2022-11-05T00:08:54.951Z,19.88
2022-11-05T00:11:44.310Z,21.33
2022-11-05T00:14:30.036Z,22.92
2022-11-05T00:16:58.289Z,18.50
2022-11-05T00:19:27.824Z,23.65
2022-11-05T00:22:13.592Z,19.33
2022-11-05T00:24:58.803Z,15.23
2022-11-05T00:27:27.014Z,17.17
2022-11-05T00:29:55.040Z,17.65
2022-11-05T00:32:24.351Z,16.23
2022-11-05T00:34:53.796Z,14.18
2022-11-05T00:37:21.824Z,12.88
2022-11-05T00:39:50.059Z,14.82
2022-11-05T00:42:35.922Z,13.77
2022-11-05T00:45:04.213Z,15.35
2022-11-05T00:47:51.678Z,12.75
2022-11-05T00:50:23.175Z,11.55
2022-11-05T00:52:58.241Z,11.73
2022-11-05T00:55:33.333Z,10.23
2022-11-05T00:58:02.753Z,12.05
2022-11-05T01:00:32.298Z,11.57
2022-11-05T01:03:02.523Z,11.15
2022-11-05T01:05:33.887Z,10.50
2022-11-05T01:08:02.933Z,12.55
2022-11-05T01:10:32.146Z,11.63
2022-11-05T01:13:00.264Z,9.43
2022-11-05T01:15:28.416Z,12.70
2022-11-05T01:17:56.495Z,14.13
2022-11-05T01:20:24.886Z,16.98
2022-11-05T01:22:54.316Z,11.65
2022-11-05T01:25:22.543Z,11.57
2022-11-05T01:27:50.812Z,11.07
2022-11-05T01:30:19.222Z,12.43
2022-11-05T01:32:47.543Z,14.23
2022-11-05T01:35:17.509Z,18.80
2022-11-05T01:37:46.393Z,12.68
2022-11-05T01:40:19.447Z,9.27
2022-11-05T01:42:47.927Z,15.35
2022-11-05T01:45:19.018Z,7.65
2022-11-05T01:47:59.453Z,16.98
2022-11-05T01:50:38.340Z,10.68
2022-11-05T01:53:18.251Z,11.32
2022-11-05T01:55:54.507Z,11.15
2022-11-05T01:58:26.776Z,10.52
2022-11-05T02:00:56.283Z,8.02
2022-11-05T02:03:25.346Z,14.80
2022-11-05T02:05:55.179Z,12.10
2022-11-05T02:08:40.368Z,13.80
2022-11-05T02:11:10.399Z,10.70
2022-11-05T02:13:38.414Z,9.63
2022-11-05T02:16:14.929Z,11.13
2022-11-05T02:18:52.838Z,11.23
2022-11-05T02:21:52.372Z,9.57
2022-11-05T02:24:58.232Z,14.10
2022-11-05T02:27:50.247Z,8.88
2022-11-05T02:30:42.098Z,16.75
2022-11-05T02:33:30.488Z,14.07
2022-11-05T02:36:12.751Z,16.40
2022-11-05T02:38:48.144Z,13.27
2022-11-05T02:41:24.913Z,11.90
2022-11-05T02:44:05.660Z,28.45
2022-11-05T02:46:45.634Z,23.00
2022-11-05T02:49:22.600Z,21.05
2022-11-05T02:51:57.833Z,21.90
2022-11-05T02:54:30.107Z,25.30
2022-11-05T02:57:00.196Z,17.88
2022-11-05T02:59:28.586Z,12.50
2022-11-05T03:01:59.651Z,11.85
2022-11-05T03:04:28.679Z,9.75
2022-11-05T03:07:16.077Z,13.40
2022-11-05T03:10:03.920Z,14.07
2022-11-05T03:12:44.206Z,8.10
2022-11-05T03:15:21.261Z,12.98
2022-11-05T03:18:01.148Z,14.30
2022-11-05T03:20:36.717Z,11.15
2022-11-05T03:23:12.879Z,13.73
2022-11-05T03:25:47.742Z,11.35
2022-11-05T03:28:18.541Z,16.50
2022-11-05T03:30:49.422Z,20.45
2022-11-05T03:33:25.587Z,20.83
2022-11-05T03:35:56.647Z,16.20
2022-11-05T03:38:29.030Z,11.70
2022-11-05T03:41:01.688Z,13.63
2022-11-05T03:43:33.520Z,14.30
2022-11-05T03:46:06.142Z,11.80
2022-11-05T03:48:41.945Z,16.20
2022-11-05T03:51:14.892Z,17.25
2022-11-05T03:53:48.046Z,23.75
2022-11-05T03:56:21.879Z,17.37
2022-11-05T03:58:54.701Z,14.10
2022-11-05T04:01:26.554Z,10.15
2022-11-05T04:03:56.040Z,15.32
2022-11-05T04:06:41.941Z,18.92
2022-11-05T04:09:28.702Z,12.88
2022-11-05T04:12:14.428Z,11.23
2022-11-05T04:14:42.419Z,13.07
2022-11-05T04:17:10.111Z,12.73
2022-11-05T04:19:58.942Z,10.75
2022-11-05T04:22:46.565Z,10.30
2022-11-05T04:25:16.035Z,14.18
2022-11-05T04:27:44.366Z,11.10
2022-11-05T04:30:18.706Z,10.25
2022-11-05T04:33:04.934Z,14.77
2022-11-05T04:35:36.925Z,11.63
2022-11-05T04:38:05.872Z,12.98
2022-11-05T04:40:34.985Z,15.10
2022-11-05T04:43:03.018Z,12.60
2022-11-05T04:45:34.473Z,14.48
2022-11-05T04:48:02.598Z,15.52
2022-11-05T04:50:31.331Z,13.73
2022-11-05T04:53:00.889Z,12.23
2022-11-05T04:55:29.556Z,10.77
2022-11-05T04:57:57.697Z,15.52
2022-11-05T05:00:26.202Z,11.98
2022-11-05T05:02:54.150Z,13.23
2022-11-05T05:05:23.283Z,12.45
2022-11-05T05:07:51.427Z,11.73
2022-11-05T05:10:21.195Z,13.70
2022-11-05T05:12:49.212Z,17.30
2022-11-05T05:15:17.681Z,14.05
2022-11-05T05:17:45.708Z,18.65
2022-11-05T05:20:31.373Z,17.75
2022-11-05T05:22:59.392Z,15.35
2022-11-05T05:25:28.804Z,14.43
2022-11-05T05:27:58.800Z,14.57
2022-11-05T05:30:27.217Z,13.85
2022-11-05T05:32:55.516Z,12.40
2022-11-05T05:35:23.722Z,12.85
2022-11-05T05:37:56.846Z,14.55
2022-11-05T05:40:25.316Z,10.90
2022-11-05T05:42:56.830Z,11.57
2022-11-05T05:45:24.969Z,15.38
2022-11-05T05:47:53.134Z,11.63
2022-11-05T05:50:21.730Z,11.35
2022-11-05T05:52:53.224Z,10.93
2022-11-05T05:55:21.632Z,12.02
2022-11-05T05:57:49.769Z,13.13
2022-11-05T06:00:19.565Z,10.43
2022-11-05T06:02:47.752Z,13.68
2022-11-05T06:05:16.252Z,11.85
2022-11-05T06:07:44.364Z,11.80
2022-11-05T06:10:12.801Z,13.20
2022-11-05T06:12:41.086Z,12.82
2022-11-05T06:15:09.874Z,12.55
2022-11-05T06:17:39.374Z,13.15
2022-11-05T06:20:09.488Z,15.98
2022-11-05T06:22:37.633Z,9.75
2022-11-05T06:25:07.222Z,13.15
2022-11-05T06:27:36.095Z,15.07
2022-11-05T06:30:04.864Z,12.52
2022-11-05T06:32:32.971Z,15.98
2022-11-05T06:35:02.729Z,12.88
2022-11-05T06:37:33.484Z,13.93
2022-11-05T06:40:01.839Z,11.77
2022-11-05T06:42:29.872Z,14.45
2022-11-05T06:44:58.091Z,16.98
2022-11-05T06:47:26.138Z,12.45
2022-11-05T06:49:54.299Z,13.90
2022-11-05T06:52:23.939Z,14.05
2022-11-05T06:54:52.313Z,14.77
2022-11-05T06:57:20.357Z,12.80
2022-11-05T06:59:48.387Z,13.65
2022-11-05T07:02:18.292Z,17.95
2022-11-05T07:04:46.325Z,14.35
2022-11-05T07:07:14.530Z,13.10
2022-11-05T07:09:44.766Z,14.20
2022-11-05T07:12:12.964Z,18.15
2022-11-05T07:14:41.079Z,17.92
2022-11-05T07:17:09.424Z,20.33
2022-11-05T07:19:37.503Z,17.38
2022-11-05T07:22:05.705Z,17.85
2022-11-05T07:24:36.234Z,19.25
2022-11-05T07:27:05.875Z,13.95
2022-11-05T07:29:33.932Z,17.45
2022-11-05T07:32:02.252Z,12.13
2022-11-05T07:34:30.299Z,14.15
2022-11-05T07:36:58.654Z,15.65
2022-11-05T07:39:26.964Z,13.13
2022-11-05T07:41:55.615Z,13.50
2022-11-05T07:44:25.264Z,17.23
2022-11-05T07:46:53.776Z,13.48
2022-11-05T07:49:23.729Z,10.65
2022-11-05T07:51:51.883Z,13.23
2022-11-05T07:54:19.916Z,12.65
2022-11-05T07:56:48.665Z,15.23
2022-11-05T07:59:16.739Z,14.45
2022-11-05T08:01:46.618Z,17.33
2022-11-05T08:04:14.780Z,14.73
2022-11-05T08:06:43.222Z,12.88
2022-11-05T08:09:11.407Z,14.55
2022-11-05T08:11:40.006Z,12.57
2022-11-05T08:14:08.439Z,10.50
2022-11-05T08:16:36.455Z,14.82
2022-11-05T08:19:06.009Z,14.40
2022-11-05T08:21:34.087Z,12.57
2022-11-05T08:24:02.169Z,10.93
2022-11-05T08:26:30.236Z,13.73
2022-11-05T08:29:00.432Z,9.57
2022-11-05T08:31:28.663Z,11.95
2022-11-05T08:34:01.360Z,10.35
2022-11-05T08:36:31.901Z,7.78
2022-11-05T08:39:00.179Z,8.63
2022-11-05T08:41:28.206Z,13.48
2022-11-05T08:43:56.492Z,7.80
2022-11-05T08:46:24.605Z,9.02
2022-11-05T08:48:53.284Z,8.73
2022-11-05T08:51:21.284Z,4.50
2022-11-05T08:53:50.834Z,5.22
2022-11-05T08:56:18.870Z,8.65
2022-11-05T08:58:47.248Z,6.82
2022-11-05T09:01:15.341Z,8.77
2022-11-05T09:03:43.712Z,5.30
2022-11-05T09:06:11.816Z,3.15
2022-11-05T09:08:40.229Z,9.13
2022-11-05T09:11:09.687Z,4.43
2022-11-05T09:13:37.837Z,6.05
2022-11-05T09:16:07.115Z,6.35
2022-11-05T09:18:35.520Z,4.28
2022-11-05T09:21:03.536Z,7.28
2022-11-05T09:23:31.735Z,3.50
2022-11-05T09:25:59.752Z,4.32
2022-11-05T09:28:31.630Z,6.75
2022-11-05T09:31:00.561Z,5.05
2022-11-05T09:33:29.243Z,6.63
2022-11-05T09:36:00.918Z,7.95
2022-11-05T09:38:29.279Z,4.25
2022-11-05T09:41:00.530Z,13.68
2022-11-05T09:43:35.733Z,6.13
2022-11-05T09:46:10.447Z,7.97
2022-11-05T09:48:40.340Z,5.20
2022-11-05T09:51:08.654Z,5.40
2022-11-05T09:53:41.083Z,5.03
2022-11-05T09:56:21.224Z,3.67
2022-11-05T09:58:54.413Z,3.83
2022-11-05T10:01:26.907Z,3.37
2022-11-05T10:03:57.784Z,5.45
2022-11-05T10:06:27.424Z,3.53
2022-11-05T10:09:03.085Z,3.45
2022-11-05T10:11:36.531Z,3.78
2022-11-05T10:14:12.666Z,4.32
2022-11-05T10:16:44.396Z,3.65
2022-11-05T10:19:17.083Z,4.45
2022-11-05T10:22:05.607Z,4.18
2022-11-05T10:24:33.250Z,4.32
2022-11-05T10:27:01.596Z,3.30
2022-11-05T10:29:34.263Z,5.85
2022-11-05T10:32:05.800Z,2.47
2022-11-05T10:34:36.034Z,2.63
2022-11-05T10:37:04.693Z,1.63
2022-11-05T10:42:40.927Z,4.43
2022-11-05T10:45:22.571Z,3.38
2022-11-05T10:48:01.980Z,3.63
2022-11-05T10:50:31.210Z,4.25
2022-11-05T10:53:01.579Z,2.58
2022-11-05T10:55:33.349Z,2.15
2022-11-05T10:58:20.445Z,3.17
2022-11-05T11:01:12.257Z,2.88
2022-11-05T11:03:51.625Z,2.38
2022-11-05T11:06:25.834Z,2.55
2022-11-05T11:08:56.895Z,4.03
2022-11-05T11:11:32.060Z,2.92
2022-11-05T11:14:06.029Z,1.95
2022-11-05T11:16:41.310Z,3.08
2022-11-05T11:19:28.773Z,3.30
2022-11-05T11:22:22.685Z,2.70
2022-11-05T11:24:54.017Z,3.33
2022-11-05T11:27:29.192Z,3.38
2022-11-05T11:29:59.918Z,3.22
2022-11-05T11:32:34.645Z,2.60
2022-11-05T11:35:03.533Z,3.05
2022-11-05T11:37:34.560Z,3.22
2022-11-05T11:40:06.734Z,4.88
2022-11-05T11:42:39.839Z,5.55
2022-11-05T11:45:16.480Z,2.20
2022-11-05T11:47:47.467Z,5.50
2022-11-05T11:50:36.291Z,2.80
2022-11-05T11:53:26.861Z,3.92
2022-11-05T11:56:00.627Z,2.65
2022-11-05T11:58:40.726Z,3.55
2022-11-05T12:01:37.232Z,4.10
2022-11-05T12:04:24.324Z,4.03
2022-11-05T12:06:59.216Z,4.45
2022-11-05T12:09:37.753Z,2.53
2022-11-05T12:12:11.663Z,3.67
2022-11-05T12:14:48.504Z,3.80
2022-11-05T12:17:30.555Z,4.20
2022-11-05T12:20:24.979Z,3.55
2022-11-05T12:23:24.016Z,4.63
2022-11-05T12:26:00.896Z,3.97
2022-11-05T12:32:03.430Z,3.38
2022-11-05T12:34:48.487Z,4.05
2022-11-05T12:37:30.683Z,4.22
2022-11-05T12:40:11.522Z,4.28
2022-11-05T12:43:03.582Z,4.20
2022-11-05T12:45:43.048Z,3.03
2022-11-05T12:48:28.268Z,4.38
2022-11-05T12:51:05.255Z,4.88
2022-11-05T12:53:48.627Z,6.18
2022-11-05T12:56:22.240Z,3.83
2022-11-05T12:58:56.870Z,3.88
2022-11-05T13:01:32.734Z,5.72
2022-11-05T13:04:06.619Z,5.05
2022-11-05T13:06:40.340Z,3.83
2022-11-05T13:09:15.759Z,4.35
2022-11-05T13:11:49.194Z,3.92
2022-11-05T13:14:21.427Z,5.97
2022-11-05T13:16:53.770Z,4.80
2022-11-05T13:19:25.849Z,3.70
2022-11-05T13:21:58.291Z,3.92
2022-11-05T13:24:32.125Z,6.22
2022-11-05T13:27:16.058Z,5.00
2022-11-05T13:29:49.965Z,7.85
2022-11-05T13:32:29.081Z,5.57
2022-11-05T13:34:57.428Z,5.15
2022-11-05T13:37:46.446Z,4.65
2022-11-05T13:40:20.327Z,3.47
2022-11-05T13:43:18.640Z,5.10
2022-11-05T13:46:06.080Z,6.18
2022-11-05T13:48:49.987Z,5.20
2022-11-05T13:51:43.464Z,2.80
2022-11-05T13:54:45.283Z,7.18
2022-11-05T13:57:30.029Z,6.55
2022-11-05T14:00:13.716Z,3.78
2022-11-05T14:02:44.475Z,6.30
2022-11-05T14:05:24.908Z,4.63
2022-11-05T14:07:54.692Z,6.00
2022-11-05T14:10:32.025Z,6.63
2022-11-05T14:13:07.639Z,6.97
2022-11-05T14:15:35.937Z,7.13
2022-11-05T14:18:06.434Z,8.05
2022-11-05T14:20:57.226Z,3.90
2022-11-05T14:23:40.344Z,5.85
2022-11-05T14:26:17.273Z,6.15
2022-11-05T14:28:49.164Z,4.72
2022-11-05T14:32:02.639Z,9.27
2022-11-05T14:34:38.540Z,8.98
2022-11-05T14:37:24.584Z,6.80
2022-11-05T14:39:54.399Z,10.00
2022-11-05T14:42:26.782Z,5.82
2022-11-05T14:45:03.344Z,5.22
2022-11-05T14:47:35.295Z,4.90
2022-11-05T14:50:11.663Z,6.70
2022-11-05T14:52:41.524Z,8.68
2022-11-05T14:55:28.352Z,7.07
2022-11-05T14:58:22.694Z,4.68
2022-11-05T15:00:52.521Z,9.00
2022-11-05T15:03:53.520Z,6.85
2022-11-05T15:06:28.144Z,6.20
2022-11-05T15:09:06.623Z,7.18
2022-11-05T15:11:38.738Z,6.55
2022-11-05T15:14:17.681Z,7.65
2022-11-05T15:16:51.122Z,6.63
2022-11-05T15:19:23.957Z,6.25
2022-11-05T15:21:54.266Z,8.65
2022-11-05T15:24:23.724Z,5.72
2022-11-05T15:26:58.616Z,8.02
2022-11-05T15:29:30.444Z,11.45
2022-11-05T15:32:00.179Z,7.40
2022-11-05T15:34:31.014Z,6.90
2022-11-05T15:37:01.400Z,4.85
2022-11-05T15:39:33.351Z,7.07
2022-11-05T15:42:05.848Z,9.35
2022-11-05T15:44:39.133Z,7.38
2022-11-05T15:47:15.484Z,7.38
2022-11-05T15:49:46.737Z,8.15
2022-11-05T15:52:17.188Z,6.65
2022-11-05T15:54:45.555Z,7.57
2022-11-05T15:57:24.869Z,7.65
2022-11-05T15:59:53.203Z,11.25
2022-11-05T16:02:32.885Z,5.80
2022-11-05T16:05:06.630Z,8.43
2022-11-05T16:07:35.015Z,9.38
2022-11-05T16:10:06.065Z,9.18
2022-11-05T16:12:37.794Z,11.68
2022-11-05T16:15:24.099Z,11.13
2022-11-05T16:17:55.912Z,8.30
2022-11-05T16:20:32.293Z,8.10
2022-11-05T16:23:02.106Z,12.32
2022-11-05T16:25:38.116Z,6.70
2022-11-05T16:28:18.663Z,9.65
2022-11-05T16:30:56.601Z,7.75
2022-11-05T16:33:27.259Z,10.02
2022-11-05T16:35:55.299Z,6.75
2022-11-05T16:38:23.728Z,8.65
2022-11-05T16:40:51.817Z,11.55
2022-11-05T16:43:21.836Z,8.50
2022-11-05T16:45:49.958Z,9.05
2022-11-05T16:48:18.207Z,9.00
2022-11-05T16:50:48.111Z,10.18
2022-11-05T16:53:17.206Z,8.75
2022-11-05T16:55:46.691Z,9.13
2022-11-05T16:58:20.740Z,10.82
2022-11-05T17:00:50.937Z,7.90
2022-11-05T17:03:19.063Z,8.50
2022-11-05T17:05:48.746Z,13.50
2022-11-05T17:08:16.988Z,7.38
2022-11-05T17:10:45.398Z,9.63
2022-11-05T17:13:15.804Z,11.25
2022-11-05T17:15:45.093Z,11.02
2022-11-05T17:18:18.231Z,9.32
2022-11-05T17:20:50.062Z,10.43
2022-11-05T17:23:20.657Z,10.73
2022-11-05T17:25:50.555Z,12.70
2022-11-05T17:28:19.777Z,9.77
2022-11-05T17:30:52.137Z,14.85
2022-11-05T17:33:22.614Z,10.73
2022-11-05T17:35:53.388Z,11.45
2022-11-05T17:38:22.994Z,12.15
2022-11-05T17:40:51.726Z,10.70
2022-11-05T17:43:20.495Z,10.80
2022-11-05T17:45:52.061Z,12.75
2022-11-05T17:48:21.192Z,11.55
2022-11-05T17:50:52.068Z,10.57
2022-11-05T17:53:21.104Z,10.65
2022-11-05T17:55:49.784Z,7.70
2022-11-05T17:58:17.946Z,11.05
2022-11-05T18:00:46.853Z,13.82
2022-11-05T18:03:16.013Z,11.10
2022-11-05T18:08:41.156Z,11.20
2022-11-05T18:11:09.230Z,9.20
2022-11-05T18:13:37.352Z,16.38
2022-11-05T18:16:06.951Z,9.52
2022-11-05T18:18:35.248Z,8.73
2022-11-05T18:21:03.288Z,9.10
2022-11-05T18:23:31.423Z,10.00
2022-11-05T18:26:00.907Z,8.40
2022-11-05T18:28:32.062Z,9.40
2022-11-05T18:31:00.238Z,14.43
2022-11-05T18:33:28.287Z,12.40
2022-11-05T18:35:56.814Z,8.80
2022-11-05T18:38:24.786Z,8.63
2022-11-05T18:40:53.023Z,14.20
2022-11-05T18:43:22.500Z,16.15
2022-11-05T18:45:56.343Z,9.45
2022-11-05T18:48:24.427Z,8.45
2022-11-05T18:50:54.527Z,10.40
2022-11-05T18:53:27.200Z,9.07
2022-11-05T18:55:55.202Z,7.35
2022-11-05T18:58:24.646Z,9.43
2022-11-05T19:00:52.655Z,13.55
2022-11-05T19:03:20.968Z,8.75
2022-11-05T19:05:48.998Z,9.80
2022-11-05T19:08:16.954Z,14.07
2022-11-05T19:10:49.845Z,10.25
2022-11-05T19:13:17.892Z,9.88
2022-11-05T19:15:47.402Z,7.63
2022-11-05T19:18:15.525Z,10.60
2022-11-05T19:20:43.791Z,10.77
2022-11-05T19:23:13.270Z,9.23
2022-11-05T19:25:41.757Z,9.88
2022-11-05T19:28:10.035Z,7.75
2022-11-05T19:30:39.057Z,9.02
2022-11-05T19:33:08.426Z,8.07
2022-11-05T19:35:41.438Z,8.20
2022-11-05T19:38:10.146Z,10.77
2022-11-05T19:40:38.676Z,12.07
2022-11-05T19:43:06.748Z,11.40
2022-11-05T19:45:50.085Z,11.90
2022-11-05T19:48:21.057Z,15.00
2022-11-05T19:50:49.593Z,13.13
2022-11-05T19:53:17.834Z,12.60
2022-11-05T19:55:46.168Z,12.98
2022-11-05T19:58:14.701Z,11.88
2022-11-05T20:00:43.355Z,13.35
2022-11-05T20:03:14.156Z,12.57
2022-11-05T20:05:43.724Z,11.48
2022-11-05T20:08:11.895Z,12.30
2022-11-05T20:10:40.315Z,12.80
2022-11-05T20:13:08.342Z,14.80
2022-11-05T20:15:38.970Z,17.20
2022-11-05T20:18:08.377Z,17.05
2022-11-05T20:20:36.366Z,14.02
2022-11-05T20:23:05.763Z,13.75
2022-11-05T20:25:33.917Z,12.63
2022-11-05T20:28:02.205Z,18.58
2022-11-05T20:30:30.481Z,14.13
2022-11-05T20:32:59.062Z,13.93
2022-11-05T20:35:27.086Z,11.13
2022-11-05T20:37:55.192Z,13.23
2022-11-05T20:40:24.752Z,14.30
2022-11-05T20:42:52.853Z,15.75
2022-11-05T20:45:21.058Z,12.68
2022-11-05T20:47:49.140Z,19.10
2022-11-05T20:50:17.252Z,13.10
2022-11-05T20:52:45.292Z,13.77
2022-11-05T20:55:13.380Z,16.50
2022-11-05T20:57:42.804Z,12.00
2022-11-05T21:00:12.828Z,10.50
2022-11-05T21:02:41.908Z,8.95
2022-11-05T21:05:10.423Z,12.95
2022-11-05T21:07:38.632Z,9.43
2022-11-05T21:10:07.477Z,12.20
2022-11-05T21:12:35.755Z,10.57
2022-11-05T21:15:05.975Z,10.75
2022-11-05T21:17:34.053Z,13.85
2022-11-05T21:20:02.103Z,15.15
2022-11-05T21:22:30.433Z,11.88
2022-11-05T21:24:58.703Z,14.30
2022-11-05T21:27:26.769Z,12.88
2022-11-05T21:29:54.992Z,16.58
2022-11-05T21:32:24.375Z,23.20
2022-11-05T21:34:52.812Z,12.98
2022-11-05T21:37:20.902Z,9.80
2022-11-05T21:39:48.973Z,11.93
2022-11-05T21:42:17.024Z,12.52
2022-11-05T21:44:45.088Z,13.52
2022-11-05T21:47:13.948Z,12.90
2022-11-05T21:49:43.363Z,10.85
2022-11-05T21:52:29.833Z,11.77
2022-11-05T21:55:15.463Z,9.40
2022-11-05T21:58:01.607Z,12.52
2022-11-05T22:00:30.370Z,12.80
2022-11-05T22:03:00.021Z,9.63
2022-11-05T22:05:29.663Z,11.65
2022-11-05T22:07:57.721Z,10.98
2022-11-05T22:10:25.921Z,9.45
2022-11-05T22:12:53.969Z,13.40
2022-11-05T22:15:22.170Z,11.43
2022-11-05T22:17:51.146Z,11.20
2022-11-05T22:20:19.369Z,11.68
2022-11-05T22:22:48.904Z,12.35
2022-11-05T22:25:17.858Z,11.65
2022-11-05T22:27:46.228Z,9.75
2022-11-05T22:30:14.998Z,11.93
2022-11-05T22:32:43.254Z,10.57
2022-11-05T22:35:11.406Z,9.05
2022-11-05T22:37:39.684Z,11.30
2022-11-05T22:40:10.199Z,10.00
2022-11-05T22:42:38.630Z,8.65
2022-11-05T22:45:07.760Z,6.88
2022-11-05T22:47:35.796Z,7.93
2022-11-05T22:50:04.679Z,9.00
2022-11-05T22:52:33.220Z,10.80
2022-11-05T22:55:02.727Z,12.95
2022-11-05T22:57:32.170Z,9.02
2022-11-05T23:00:00.196Z,11.13
2022-11-05T23:02:28.469Z,9.65
2022-11-05T23:04:56.709Z,8.43
2022-11-05T23:07:42.407Z,6.60
2022-11-05T23:10:28.178Z,10.07
2022-11-05T23:12:57.667Z,9.00
2022-11-05T23:15:43.262Z,5.60
2022-11-05T23:18:28.945Z,8.68
2022-11-05T23:21:17.970Z,9.90
2022-11-05T23:24:08.072Z,6.65
2022-11-05T23:26:52.068Z,8.88
2022-11-05T23:29:23.045Z,7.90
2022-11-05T23:32:09.214Z,9.25
2022-11-05T23:34:37.696Z,10.07
2022-11-05T23:37:23.361Z,7.90
2022-11-05T23:39:51.695Z,8.55
2022-11-05T23:42:37.559Z,6.50
2022-11-05T23:45:25.833Z,7.30
2022-11-05T23:48:11.685Z,7.65
2022-11-05T23:50:40.930Z,11.27
2022-11-05T23:53:09.291Z,12.48
2022-11-05T23:55:37.938Z,8.48
2022-11-05T23:58:06.219Z,8.73
